createdAt,value
2023-01-30T00:00:55.863Z,32.60
2023-01-30T00:03:24.717Z,31.90
2023-01-30T00:05:51.302Z,28.43
2023-01-30T00:08:18.135Z,31.57
2023-01-30T00:10:45.277Z,32.20
2023-01-30T00:13:12.584Z,42.23
2023-01-30T00:15:39.267Z,36.07
2023-01-30T00:18:06.025Z,32.30
2023-01-30T00:20:32.710Z,36.83
2023-01-30T00:23:01.216Z,34.40
2023-01-30T00:25:28.760Z,37.97
2023-01-30T00:27:56.687Z,37.73
2023-01-30T00:30:23.277Z,37.17
2023-01-30T00:32:57.377Z,32.37
2023-01-30T00:35:28.402Z,35.87
2023-01-30T00:37:59.071Z,32.30
2023-01-30T00:40:27.439Z,38.17
2023-01-30T00:43:12.572Z,39.47
2023-01-30T00:45:59.875Z,37.97
2023-01-30T00:48:26.564Z,37.97
2023-01-30T00:50:53.069Z,42.37
2023-01-30T00:53:20.074Z,33.73
2023-01-30T00:55:46.686Z,38.53
2023-01-30T00:58:13.720Z,30.57
2023-01-30T01:00:40.390Z,37.67
2023-01-30T01:03:07.118Z,29.20
2023-01-30T01:05:33.707Z,36.73
2023-01-30T01:08:00.263Z,35.33
2023-01-30T01:10:26.864Z,27.07
2023-01-30T01:12:53.483Z,32.90
2023-01-30T01:15:21.304Z,35.53
2023-01-30T01:17:48.343Z,37.63
2023-01-30T01:20:15.299Z,38.90
2023-01-30T01:22:41.863Z,29.20
2023-01-30T01:25:09.864Z,32.03
2023-01-30T01:27:37.278Z,33.93
2023-01-30T01:30:05.908Z,30.73
2023-01-30T01:32:32.441Z,30.70
2023-01-30T01:34:58.921Z,29.07
2023-01-30T01:37:25.574Z,29.73
2023-01-30T01:40:10.483Z,31.80
2023-01-30T01:42:38.967Z,30.30
2023-01-30T01:45:11.661Z,35.27
2023-01-30T01:47:44.809Z,38.30
2023-01-30T01:50:19.960Z,34.50
2023-01-30T01:52:47.027Z,34.27
2023-01-30T01:55:14.475Z,35.70
2023-01-30T01:57:49.263Z,34.20
2023-01-30T02:00:17.748Z,37.00
2023-01-30T02:02:47.909Z,29.13
2023-01-30T02:05:16.312Z,30.17
2023-01-30T02:07:47.214Z,37.53
2023-01-30T02:10:18.819Z,37.23
2023-01-30T02:12:45.534Z,34.57
2023-01-30T02:15:12.058Z,30.93
2023-01-30T02:17:38.582Z,25.70
2023-01-30T02:20:08.375Z,31.60
2023-01-30T02:22:57.560Z,36.23
2023-01-30T02:25:49.043Z,31.90
2023-01-30T02:28:33.787Z,33.13
2023-01-30T02:31:32.183Z,32.63
2023-01-30T02:34:23.667Z,35.67
2023-01-30T02:37:13.790Z,33.47
2023-01-30T02:39:58.583Z,34.43
2023-01-30T02:42:32.224Z,30.57
2023-01-30T02:45:02.628Z,34.93
2023-01-30T02:47:33.837Z,34.43
2023-01-30T02:50:15.795Z,32.50
2023-01-30T02:52:42.618Z,39.60
2023-01-30T02:55:14.969Z,36.70
2023-01-30T02:57:41.450Z,40.00
2023-01-30T03:00:09.075Z,34.67
2023-01-30T03:02:37.937Z,35.57
2023-01-30T03:05:33.865Z,37.63
2023-01-30T03:08:25.026Z,34.40
2023-01-30T03:11:07.607Z,38.53
2023-01-30T03:13:49.409Z,35.10
2023-01-30T03:16:19.192Z,40.87
2023-01-30T03:18:46.392Z,38.80
2023-01-30T03:21:13.058Z,41.10
2023-01-30T03:23:39.567Z,42.00
2023-01-30T03:26:08.519Z,40.60
2023-01-30T03:28:35.174Z,44.50
2023-01-30T03:31:02.055Z,46.17
2023-01-30T03:33:28.684Z,40.20
2023-01-30T03:35:55.188Z,39.03
2023-01-30T03:38:21.666Z,34.70
2023-01-30T03:40:48.097Z,32.37
2023-01-30T03:43:14.558Z,42.63
2023-01-30T03:45:41.106Z,40.80
2023-01-30T03:48:07.549Z,38.83
2023-01-30T03:50:34.050Z,39.93
2023-01-30T03:53:00.473Z,40.70
2023-01-30T03:55:27.008Z,33.73
2023-01-30T03:57:57.699Z,42.33
2023-01-30T04:00:24.175Z,43.00
2023-01-30T04:02:51.202Z,49.40
2023-01-30T04:05:18.495Z,39.10
2023-01-30T04:07:45.308Z,41.90
2023-01-30T04:10:12.020Z,38.80
2023-01-30T04:12:38.666Z,41.53
2023-01-30T04:15:05.775Z,33.87
2023-01-30T04:17:32.270Z,39.30
2023-01-30T04:19:58.757Z,40.10
2023-01-30T04:22:25.247Z,42.97
2023-01-30T04:24:51.951Z,40.10
2023-01-30T04:27:18.398Z,36.50
2023-01-30T04:29:44.870Z,43.50
2023-01-30T04:32:11.321Z,36.60
2023-01-30T04:34:37.777Z,48.63
2023-01-30T04:37:04.257Z,41.53
2023-01-30T04:39:30.697Z,42.47
2023-01-30T04:41:57.163Z,43.53
2023-01-30T04:44:23.858Z,33.60
2023-01-30T04:46:50.375Z,32.97
2023-01-30T04:49:17.598Z,31.57
2023-01-30T04:51:44.134Z,37.97
2023-01-30T04:54:10.585Z,32.83
2023-01-30T04:56:37.303Z,40.47
2023-01-30T04:59:03.968Z,37.40
2023-01-30T05:01:33.415Z,33.70
2023-01-30T05:03:59.927Z,30.17
2023-01-30T05:06:26.645Z,28.60
2023-01-30T05:08:55.488Z,35.10
2023-01-30T05:11:23.499Z,38.57
2023-01-30T05:13:50.290Z,39.70
2023-01-30T05:16:17.537Z,32.70
2023-01-30T05:18:44.641Z,31.87
2023-01-30T05:21:13.836Z,26.53
2023-01-30T05:23:40.988Z,28.80
2023-01-30T05:26:07.657Z,24.07
2023-01-30T05:28:34.695Z,30.30
2023-01-30T05:31:06.088Z,28.10
2023-01-30T05:33:32.713Z,24.80
2023-01-30T05:35:59.581Z,28.87
2023-01-30T05:38:26.679Z,24.03
2023-01-30T05:41:05.422Z,27.83
2023-01-30T05:43:32.815Z,26.70
2023-01-30T05:46:01.400Z,23.67
2023-01-30T05:48:28.785Z,23.20
2023-01-30T05:50:57.444Z,27.50
2023-01-30T05:53:27.123Z,22.57
2023-01-30T05:56:04.402Z,20.70
2023-01-30T05:58:31.843Z,26.27
2023-01-30T06:01:03.119Z,23.67
2023-01-30T06:03:29.844Z,30.67
2023-01-30T06:05:56.478Z,25.80
2023-01-30T06:08:23.506Z,25.97
2023-01-30T06:10:50.193Z,23.13
2023-01-30T06:13:16.737Z,25.90
2023-01-30T06:15:43.271Z,25.03
2023-01-30T06:18:09.821Z,23.80
2023-01-30T06:20:36.399Z,26.60
2023-01-30T06:23:03.173Z,23.83
2023-01-30T06:25:29.665Z,27.10
2023-01-30T06:27:56.197Z,27.03
2023-01-30T06:30:22.796Z,25.47
2023-01-30T06:32:52.473Z,30.03
2023-01-30T06:35:19.787Z,30.23
2023-01-30T06:37:46.561Z,29.03
2023-01-30T06:40:13.481Z,32.87
2023-01-30T06:42:45.087Z,30.80
2023-01-30T06:45:12.318Z,35.60
2023-01-30T06:47:52.904Z,36.87
2023-01-30T06:50:21.934Z,35.60
2023-01-30T06:52:49.493Z,39.70
2023-01-30T06:55:17.972Z,40.90
2023-01-30T06:57:44.905Z,36.67
2023-01-30T07:00:14.424Z,37.47
2023-01-30T07:02:41.885Z,42.23
2023-01-30T07:05:09.404Z,37.17
2023-01-30T07:07:36.579Z,40.27
2023-01-30T07:10:10.923Z,33.43
2023-01-30T07:12:37.901Z,36.80
2023-01-30T07:15:06.580Z,34.83
2023-01-30T07:17:33.411Z,30.23
2023-01-30T07:20:00.125Z,33.90
2023-01-30T07:22:26.687Z,35.53
2023-01-30T07:24:53.238Z,35.00
2023-01-30T07:27:19.801Z,30.43
2023-01-30T07:29:46.344Z,34.03
2023-01-30T07:32:19.896Z,34.03
2023-01-30T07:34:47.208Z,29.30
2023-01-30T07:37:13.907Z,35.90
2023-01-30T07:39:40.449Z,32.73
2023-01-30T07:42:07.248Z,31.37
2023-01-30T07:44:34.334Z,28.60
2023-01-30T07:47:01.412Z,27.43
2023-01-30T07:49:28.315Z,22.60
2023-01-30T07:51:54.973Z,26.53
2023-01-30T07:54:21.465Z,26.80
2023-01-30T07:56:47.940Z,22.90
2023-01-30T07:59:14.402Z,24.97
2023-01-30T08:01:40.917Z,22.50
2023-01-30T08:04:07.452Z,26.53
2023-01-30T08:06:38.925Z,21.70
2023-01-30T08:09:06.681Z,21.93
2023-01-30T08:11:33.825Z,17.80
2023-01-30T08:14:00.676Z,19.00
2023-01-30T08:16:27.453Z,16.40
2023-01-30T08:18:53.988Z,21.20
2023-01-30T08:21:20.518Z,19.47
2023-01-30T08:23:47.095Z,14.33
2023-01-30T08:26:13.689Z,18.27
2023-01-30T08:28:40.879Z,10.93
2023-01-30T08:31:11.967Z,20.60
2023-01-30T08:33:38.970Z,10.70
2023-01-30T08:36:05.915Z,15.83
2023-01-30T08:38:32.452Z,11.60
2023-01-30T08:41:00.976Z,9.17
2023-01-30T08:43:27.533Z,9.50
2023-01-30T08:45:54.717Z,7.00
2023-01-30T08:48:21.472Z,10.13
2023-01-30T08:50:50.915Z,16.40
2023-01-30T08:53:17.420Z,16.30
2023-01-30T08:55:44.902Z,10.23
2023-01-30T08:58:14.144Z,11.10
2023-01-30T09:00:44.415Z,11.73
2023-01-30T09:03:12.119Z,16.67
2023-01-30T09:05:38.633Z,14.97
2023-01-30T09:08:05.587Z,17.60
2023-01-30T09:10:32.349Z,13.07
2023-01-30T09:12:58.821Z,9.07
2023-01-30T09:15:25.291Z,7.77
2023-01-30T09:17:52.469Z,8.20
2023-01-30T09:20:20.735Z,7.63
2023-01-30T09:22:47.422Z,14.07
2023-01-30T09:25:14.040Z,11.67
2023-01-30T09:27:44.334Z,13.40
2023-01-30T09:30:11.523Z,19.60
2023-01-30T09:32:38.305Z,16.20
2023-01-30T09:35:05.168Z,15.40
2023-01-30T09:37:31.884Z,8.70
2023-01-30T09:39:58.492Z,14.03
2023-01-30T09:42:38.161Z,19.40
2023-01-30T09:45:15.497Z,11.90
2023-01-30T09:47:52.027Z,12.17
2023-01-30T09:50:46.850Z,14.67
2023-01-30T09:53:16.814Z,9.40
2023-01-30T09:55:43.443Z,14.03
2023-01-30T09:58:18.237Z,18.17
2023-01-30T10:00:46.830Z,17.80
2023-01-30T10:03:24.133Z,14.10
2023-01-30T10:05:54.967Z,18.37
2023-01-30T10:08:40.360Z,15.87
2023-01-30T10:11:34.744Z,16.23
2023-01-30T10:14:26.397Z,18.27
2023-01-30T10:17:12.051Z,12.57
2023-01-30T10:20:03.554Z,10.83
2023-01-30T10:22:39.935Z,7.37
2023-01-30T10:25:15.417Z,14.43
2023-01-30T10:27:53.962Z,19.70
2023-01-30T10:30:21.177Z,10.43
2023-01-30T10:32:57.968Z,14.40
2023-01-30T10:35:34.176Z,12.00
2023-01-30T10:38:17.481Z,11.20
2023-01-30T10:41:10.339Z,16.50
2023-01-30T10:43:41.818Z,12.40
2023-01-30T10:46:23.654Z,10.67
2023-01-30T10:48:55.036Z,13.50
2023-01-30T10:51:48.362Z,15.60
2023-01-30T10:54:24.286Z,9.33
2023-01-30T10:56:57.243Z,12.00
2023-01-30T10:59:49.036Z,15.17
2023-01-30T11:02:36.164Z,16.30
2023-01-30T11:05:17.239Z,16.47
2023-01-30T11:07:46.184Z,15.17
2023-01-30T11:10:21.584Z,17.63
2023-01-30T11:12:52.942Z,12.20
2023-01-30T11:15:21.046Z,13.03
2023-01-30T11:17:47.690Z,11.00
2023-01-30T11:20:20.424Z,15.37
2023-01-30T11:23:07.117Z,14.13
2023-01-30T11:25:50.066Z,9.73
2023-01-30T11:28:19.427Z,8.00
2023-01-30T11:31:00.328Z,8.40
2023-01-30T11:33:40.229Z,10.40
2023-01-30T11:36:22.764Z,11.40
2023-01-30T11:39:00.259Z,21.63
2023-01-30T11:41:27.293Z,14.10
2023-01-30T11:44:00.735Z,25.57
2023-01-30T11:46:30.201Z,19.37
2023-01-30T11:49:32.070Z,8.23
2023-01-30T11:51:52.548Z,19.57
2023-01-30T11:54:23.419Z,13.67
2023-01-30T11:56:53.981Z,18.80
2023-01-30T11:59:37.247Z,10.87
2023-01-30T12:02:11.494Z,14.37
2023-01-30T12:04:38.194Z,13.80
2023-01-30T12:07:11.086Z,12.53
2023-01-30T12:09:40.082Z,17.97
2023-01-30T12:12:43.853Z,12.80
2023-01-30T12:15:19.854Z,14.93
2023-01-30T12:17:49.759Z,20.30
2023-01-30T12:20:28.648Z,20.13
2023-01-30T12:23:04.405Z,11.40
2023-01-30T12:26:00.033Z,15.83
2023-01-30T12:28:32.985Z,17.10
2023-01-30T12:31:13.608Z,8.77
2023-01-30T12:33:40.167Z,15.70
2023-01-30T12:36:31.779Z,11.60
2023-01-30T12:39:25.693Z,13.03
2023-01-30T12:42:07.391Z,12.53
2023-01-30T12:44:52.141Z,14.87
2023-01-30T12:47:31.783Z,10.80
2023-01-30T12:50:07.440Z,15.40
2023-01-30T12:52:56.292Z,18.03
2023-01-30T12:55:25.696Z,15.50
2023-01-30T12:58:23.219Z,12.77
2023-01-30T13:00:55.632Z,12.07
2023-01-30T13:03:41.475Z,21.77
2023-01-30T13:06:26.175Z,15.47
2023-01-30T13:08:52.659Z,12.10
2023-01-30T13:11:44.008Z,11.73
2023-01-30T13:14:21.946Z,11.37
2023-01-30T13:16:54.548Z,14.40
2023-01-30T13:19:23.082Z,16.93
2023-01-30T13:22:00.899Z,11.57
2023-01-30T13:24:49.416Z,9.57
2023-01-30T13:27:19.537Z,18.33
2023-01-30T13:29:48.335Z,14.77
2023-01-30T13:32:22.186Z,15.27
2023-01-30T13:34:49.428Z,15.83
2023-01-30T13:37:18.554Z,9.70
2023-01-30T13:39:55.973Z,13.13
2023-01-30T13:42:32.445Z,15.60
2023-01-30T13:44:59.557Z,13.93
2023-01-30T13:47:52.552Z,8.60
2023-01-30T13:50:45.225Z,13.87
2023-01-30T13:53:25.851Z,12.43
2023-01-30T13:56:06.645Z,18.33
2023-01-30T13:58:44.179Z,10.50
2023-01-30T14:01:12.876Z,9.90
2023-01-30T14:03:40.728Z,7.30
2023-01-30T14:06:14.316Z,9.83
2023-01-30T14:08:46.942Z,10.63
2023-01-30T14:11:33.879Z,7.90
2023-01-30T14:14:19.590Z,13.93
2023-01-30T14:16:48.769Z,17.73
2023-01-30T14:19:24.284Z,8.17
2023-01-30T14:21:56.244Z,10.67
2023-01-30T14:24:24.974Z,13.60
2023-01-30T14:26:51.500Z,13.73
2023-01-30T14:29:42.947Z,13.77
2023-01-30T14:32:13.131Z,15.13
2023-01-30T14:34:43.150Z,12.07
2023-01-30T14:37:37.927Z,12.90
2023-01-30T14:40:24.499Z,11.37
2023-01-30T14:43:13.160Z,12.83
2023-01-30T14:46:07.473Z,20.03
2023-01-30T14:48:44.937Z,15.47
2023-01-30T14:51:20.838Z,19.30
2023-01-30T14:54:01.225Z,17.93
2023-01-30T14:56:55.433Z,15.00
2023-01-30T14:59:25.517Z,12.43
2023-01-30T15:02:07.399Z,9.97
2023-01-30T15:04:47.432Z,14.70
2023-01-30T15:07:30.316Z,14.33
2023-01-30T15:10:30.910Z,14.07
2023-01-30T15:13:31.287Z,19.00
2023-01-30T15:16:21.593Z,13.70
2023-01-30T15:19:03.141Z,8.33
2023-01-30T15:21:40.515Z,13.93
2023-01-30T15:24:31.921Z,22.73
2023-01-30T15:27:20.917Z,11.87
2023-01-30T15:30:05.925Z,17.53
2023-01-30T15:32:33.093Z,11.07
2023-01-30T15:35:16.519Z,6.93
2023-01-30T15:37:46.448Z,13.00
2023-01-30T15:40:15.973Z,8.63
2023-01-30T15:42:47.927Z,12.50
2023-01-30T15:45:51.708Z,14.00
2023-01-30T15:48:30.226Z,8.27
2023-01-30T15:50:59.250Z,16.20
2023-01-30T15:53:30.972Z,19.63
2023-01-30T15:56:00.342Z,17.30
2023-01-30T15:58:27.032Z,19.10
2023-01-30T16:00:56.165Z,21.00
2023-01-30T16:03:26.354Z,16.60
2023-01-30T16:05:58.005Z,16.70
2023-01-30T16:08:30.683Z,16.13
2023-01-30T16:10:57.471Z,12.03
2023-01-30T16:13:24.510Z,14.30
2023-01-30T16:16:02.775Z,21.97
2023-01-30T16:18:42.078Z,16.33
2023-01-30T16:21:31.649Z,15.77
2023-01-30T16:24:13.336Z,20.30
2023-01-30T16:26:43.545Z,14.90
2023-01-30T16:29:15.786Z,25.50
2023-01-30T16:31:44.932Z,22.83
2023-01-30T16:34:25.163Z,10.00
2023-01-30T16:36:51.667Z,11.57
2023-01-30T16:39:36.084Z,21.17
2023-01-30T16:42:24.130Z,22.67
2023-01-30T16:44:50.641Z,13.20
2023-01-30T16:47:28.905Z,12.17
2023-01-30T16:49:55.979Z,19.63
2023-01-30T16:52:30.771Z,19.17
2023-01-30T16:55:03.576Z,18.10
2023-01-30T16:57:45.642Z,16.33
2023-01-30T17:00:24.943Z,7.53
2023-01-30T17:02:54.584Z,17.20
2023-01-30T17:05:23.968Z,15.43
2023-01-30T17:07:51.703Z,20.57
2023-01-30T17:10:37.256Z,22.37
2023-01-30T17:13:04.281Z,14.60
2023-01-30T17:15:33.381Z,15.03
2023-01-30T17:18:00.224Z,17.73
2023-01-30T17:20:38.145Z,11.43
2023-01-30T17:23:08.110Z,22.43
2023-01-30T17:25:38.641Z,11.97
2023-01-30T17:28:07.467Z,10.00
2023-01-30T17:30:34.061Z,10.70
2023-01-30T17:33:00.543Z,11.50
2023-01-30T17:35:27.129Z,10.00
2023-01-30T17:38:04.725Z,20.13
2023-01-30T17:40:36.189Z,15.23
2023-01-30T17:43:02.680Z,20.17
2023-01-30T17:45:30.033Z,22.63
2023-01-30T17:47:56.548Z,15.83
2023-01-30T17:50:23.151Z,11.73
2023-01-30T17:52:49.610Z,18.23
2023-01-30T17:55:16.380Z,13.13
2023-01-30T17:57:44.686Z,15.83
2023-01-30T18:00:16.633Z,14.20
2023-01-30T18:02:43.559Z,14.77
2023-01-30T18:05:10.700Z,16.73
2023-01-30T18:07:38.219Z,9.37
2023-01-30T18:10:05.357Z,16.27
2023-01-30T18:12:31.834Z,13.33
2023-01-30T18:14:58.661Z,19.10
2023-01-30T18:17:28.417Z,14.73
2023-01-30T18:19:55.587Z,17.93
2023-01-30T18:22:22.260Z,23.70
2023-01-30T18:24:48.956Z,21.20
2023-01-30T18:27:15.401Z,14.37
2023-01-30T18:29:41.851Z,16.30
2023-01-30T18:32:08.336Z,12.23
2023-01-30T18:34:35.252Z,18.97
2023-01-30T18:37:01.781Z,9.30
2023-01-30T18:39:28.365Z,14.80
2023-01-30T18:41:54.923Z,21.20
2023-01-30T18:44:21.439Z,18.13
2023-01-30T18:46:50.245Z,17.90
2023-01-30T18:49:16.842Z,24.53
2023-01-30T18:51:48.286Z,17.07
2023-01-30T18:54:14.802Z,19.50
2023-01-30T18:56:41.855Z,29.23
2023-01-30T18:59:10.060Z,12.50
2023-01-30T19:01:39.943Z,15.53
2023-01-30T19:04:08.472Z,17.37
2023-01-30T19:06:37.064Z,18.97
2023-01-30T19:09:04.794Z,9.60
2023-01-30T19:11:49.993Z,13.00
2023-01-30T19:14:17.007Z,20.00
2023-01-30T19:16:43.580Z,15.73
2023-01-30T19:19:10.343Z,17.07
2023-01-30T19:21:37.418Z,22.90
2023-01-30T19:24:07.554Z,22.93
2023-01-30T19:26:37.552Z,11.20
2023-01-30T19:29:04.106Z,19.70
2023-01-30T19:31:30.732Z,10.40
2023-01-30T19:33:59.028Z,10.03
2023-01-30T19:36:27.393Z,13.70
2023-01-30T19:38:54.248Z,21.23
2023-01-30T19:41:32.204Z,10.93
2023-01-30T19:44:00.398Z,15.53
2023-01-30T19:46:30.067Z,23.47
2023-01-30T19:48:57.095Z,13.57
2023-01-30T19:51:28.346Z,16.33
2023-01-30T19:54:06.421Z,14.10
2023-01-30T19:56:33.303Z,17.70
2023-01-30T19:59:01.148Z,16.63
2023-01-30T20:01:30.633Z,46.77
2023-01-30T20:03:57.562Z,23.27
2023-01-30T20:06:29.350Z,17.27
2023-01-30T20:08:58.371Z,17.43
2023-01-30T20:11:26.490Z,11.73
2023-01-30T20:13:59.795Z,20.57
2023-01-30T20:16:27.684Z,16.10
2023-01-30T20:19:04.815Z,27.97
2023-01-30T20:21:31.771Z,18.53
2023-01-30T20:23:58.385Z,15.80
2023-01-30T20:26:28.140Z,20.43
2023-01-30T20:28:55.916Z,17.70
2023-01-30T20:31:24.450Z,20.37
2023-01-30T20:33:51.609Z,21.50
2023-01-30T20:36:19.659Z,19.23
2023-01-30T20:38:50.501Z,13.33
2023-01-30T20:41:25.312Z,18.83
2023-01-30T20:43:54.411Z,15.33
2023-01-30T20:46:31.930Z,19.73
2023-01-30T20:49:01.225Z,15.47
2023-01-30T20:51:30.121Z,24.83
2023-01-30T20:54:08.602Z,17.00
2023-01-30T20:56:43.143Z,19.00
2023-01-30T20:59:12.127Z,19.07
2023-01-30T21:01:39.702Z,11.80
2023-01-30T21:04:11.905Z,20.67
2023-01-30T21:06:44.333Z,25.63
2023-01-30T21:09:15.422Z,15.30
2023-01-30T21:11:45.252Z,13.30
2023-01-30T21:14:14.647Z,16.57
2023-01-30T21:16:41.669Z,16.33
2023-01-30T21:19:14.067Z,25.40
2023-01-30T21:21:53.442Z,26.03
2023-01-30T21:24:25.954Z,14.37
2023-01-30T21:26:53.529Z,13.93
2023-01-30T21:29:23.059Z,18.07
2023-01-30T21:31:50.312Z,21.57
2023-01-30T21:34:17.649Z,18.37
2023-01-30T21:37:04.776Z,20.03
2023-01-30T21:39:49.988Z,21.60
2023-01-30T21:42:35.121Z,20.47
2023-01-30T21:45:02.327Z,23.40
2023-01-30T21:47:28.968Z,16.93
2023-01-30T21:49:55.652Z,26.20
2023-01-30T21:52:22.169Z,22.93
2023-01-30T21:54:48.681Z,13.23
2023-01-30T21:57:15.304Z,22.67
2023-01-30T21:59:41.902Z,12.87
2023-01-30T22:02:09.801Z,17.90
2023-01-30T22:04:36.647Z,20.03
2023-01-30T22:07:05.747Z,26.20
2023-01-30T22:09:33.133Z,16.57
2023-01-30T22:11:59.655Z,21.77
2023-01-30T22:14:26.125Z,20.50
2023-01-30T22:16:53.280Z,25.10
2023-01-30T22:19:19.877Z,15.77
2023-01-30T22:21:46.592Z,20.80
2023-01-30T22:24:13.135Z,12.07
2023-01-30T22:26:39.775Z,13.23
2023-01-30T22:29:06.709Z,20.70
2023-01-30T22:31:35.842Z,23.77
2023-01-30T22:34:04.291Z,15.70
2023-01-30T22:36:32.768Z,12.93
2023-01-30T22:38:59.479Z,27.23
2023-01-30T22:41:27.324Z,22.17
2023-01-30T22:43:55.682Z,8.80
2023-01-30T22:46:27.554Z,19.37
2023-01-30T22:48:54.797Z,20.50
2023-01-30T22:51:25.141Z,16.60
2023-01-30T22:53:56.638Z,21.57
2023-01-30T22:56:39.706Z,18.00
2023-01-30T22:59:07.209Z,16.83
2023-01-30T23:01:37.084Z,16.30
2023-01-30T23:04:07.534Z,22.57
2023-01-30T23:06:34.399Z,15.07
2023-01-30T23:09:01.449Z,15.13
2023-01-30T23:11:34.680Z,16.27
2023-01-30T23:14:09.218Z,15.00
2023-01-30T23:16:37.253Z,9.23
2023-01-30T23:19:04.635Z,16.53
2023-01-30T23:21:37.062Z,15.00
2023-01-30T23:24:09.941Z,14.13
2023-01-30T23:26:39.686Z,20.87
2023-01-30T23:29:08.689Z,13.93
2023-01-30T23:31:36.758Z,15.77
2023-01-30T23:34:04.920Z,24.47
2023-01-30T23:36:31.698Z,12.70
2023-01-30T23:38:59.541Z,15.30
2023-01-30T23:41:28.522Z,15.30
2023-01-30T23:43:55.792Z,11.70
2023-01-30T23:46:26.575Z,11.70
2023-01-30T23:48:58.619Z,10.63
2023-01-30T23:51:27.288Z,9.70
2023-01-30T23:53:54.590Z,19.73
2023-01-30T23:56:22.780Z,16.87
2023-01-30T23:58:50.071Z,21.47
